Thunder radar more information blitzortung!


Löydät sääaseman tiedot myös:

European Weather Network

Finland Weather Exchange

Weather Underground

AWEKAS



Weather Underground säähistoriasivu

Päivittäin yhteenveto Syyskuu 24, 2017 Yksiköt:  Englantilaiset    Metriset   Molemmat
« Edellinen Päivä
Seuraava Päivä »
Päivittäin Viikoittain Kuukausittain Vuosittain Mukautettu
  Korkea: Matala: Keskiarvo:
Lämpötila: TemperatureC °F 3.7 °F 9.6 °F
Kastepiste: DewpointC °F 3.3 °F 8.1 °F
Kosteus: Humidity % 69 % 90 %
Tuulen nopeus: WindSpeedKMH mph 0.0 mph 0.1 mph
Tuulenpuuska: WindSpeedGustKMH mph - -
Tuuli:- - SSE
Ilmanpaine: PressurehPa in 1032.1 in -
Sade: 0.0 in    
Historical Graphs
 
 
Taulukkotiedot Syyskuu 24, 2017
Aika Lämpötila Kastepiste Ilmanpaine Tuuli Tuulen nopeus Tuulenpuuska Kosteus Sademäärä (tunneittain)
TemperatureC °F DewpointC °F PressurehPa in Calm     Humidity % HourlyPrecipMM in
00:00 7.9 °F 7.3 °F 1032.1 in Calm     96 % 0.0 in
00:15 7.8 °F 7.2 °F 1032.1 in Calm     96 % 0.0 in
00:30 7.7 °F 7.3 °F 1032.4 in Calm     97 % 0.0 in
00:45 7.6 °F 7.0 °F 1032.4 in Calm     96 % 0.0 in
01:00 7.3 °F 6.7 °F 1032.4 in Calm     96 % 0.0 in
01:15 7.2 °F 6.6 °F 1032.4 in Calm     96 % 0.0 in
01:30 7.0 °F 6.4 °F 1032.4 in Calm     96 % 0.0 in
01:45 6.7 °F 6.1 °F 1032.4 in Calm     96 % 0.0 in
02:00 6.6 °F 6.0 °F 1032.4 in Calm     96 % 0.0 in
02:15 6.4 °F 5.9 °F 1032.4 in Calm     97 % 0.0 in
02:45 6.0 °F 5.6 °F 1032.4 in Calm     97 % 0.0 in
03:00 5.9 °F 5.4 °F 1032.4 in Calm     97 % 0.0 in
03:15 5.8 °F 5.4 °F 1032.4 in Calm     97 % 0.0 in
03:30 5.7 °F 5.3 °F 1032.4 in Calm     97 % 0.0 in
03:45 5.6 °F 5.1 °F 1032.4 in Calm     97 % 0.0 in
04:00 5.4 °F 5.0 °F 1032.4 in Calm     97 % 0.0 in
04:15 5.1 °F 4.7 °F 1032.7 in Calm     97 % 0.0 in
04:30 4.9 °F 4.5 °F 1032.7 in Calm     97 % 0.0 in
04:45 4.7 °F 4.3 °F 1032.7 in Calm     97 % 0.0 in
05:00 4.5 °F 4.1 °F 1032.7 in Calm     97 % 0.0 in
05:15 4.4 °F 4.0 °F 1032.7 in Calm     97 % 0.0 in
05:30 4.3 °F 3.9 °F 1032.7 in Calm     97 % 0.0 in
05:45 4.4 °F 4.0 °F 1032.7 in Calm     97 % 0.0 in
06:00 4.3 °F 3.8 °F 1032.7 in Calm     97 % 0.0 in
06:30 3.8 °F 3.4 °F 1032.7 in Calm     97 % 0.0 in
06:45 3.7 °F 3.3 °F 1032.7 in Calm     97 % 0.0 in
07:00 3.8 °F 3.3 °F 1033.1 in Calm     97 % 0.0 in
07:15 3.9 °F 3.5 °F 1033.1 in Calm     97 % 0.0 in
07:30 4.1 °F 3.6 °F 1033.1 in Calm     97 % 0.0 in
07:45 4.1 °F 3.7 °F 1033.4 in Calm     97 % 0.0 in
08:00 4.3 °F 4.0 °F 1033.4 in Calm     98 % 0.0 in
08:15 4.7 °F 4.4 °F 1033.4 in Calm     98 % 0.0 in
08:30 5.2 °F 4.9 °F 1033.4 in Calm     98 % 0.0 in
08:45 5.9 °F 5.6 °F 1033.4 in Calm     98 % 0.0 in
09:00 6.2 °F 5.9 °F 1033.7 in Calm     98 % 0.0 in
09:15 6.5 °F 6.2 °F 1033.7 in Calm     98 % 0.0 in
09:30 6.6 °F 6.3 °F 1034.1 in Calm     98 % 0.0 in
09:45 6.7 °F 6.4 °F 1034.1 in Calm     98 % 0.0 in
10:00 7.2 °F 6.9 °F 1034.1 in Calm     98 % 0.0 in
10:15 7.7 °F 7.4 °F 1034.1 in Calm     98 % 0.0 in
10:30 8.3 °F 8.0 °F 1034.4 in Calm   6.4 mph 98 % 0.0 in
10:45 9.1 °F 8.8 °F 1034.4 in Calm   6.4 mph 98 % 0.0 in
11:00 9.8 °F 9.5 °F 1034.4 in Calm   6.4 mph 98 % 0.0 in
11:15 10.4 °F 10.3 °F 1034.4 in Calm   1.6 mph 99 % 0.0 in
11:30 11.1 °F 10.9 °F 1034.8 in Calm   3.2 mph 99 % 0.0 in
11:45 11.6 °F 11.3 °F 1034.8 in Calm   4.8 mph 98 % 0.0 in
12:00 12.4 °F 12.1 °F 1034.8 in Calm   4.8 mph 98 % 0.0 in
12:15 13.3 °F 11.8 °F 1034.8 in Calm   4.8 mph 91 % 0.0 in
12:30 13.8 °F 11.7 °F 1034.8 in Calm   6.4 mph 87 % 0.0 in
12:45 14.3 °F 11.7 °F 1034.4 in Calm   8.0 mph 84 % 0.0 in
13:00 14.8 °F 11.7 °F 1034.8 in Calm   4.8 mph 82 % 0.0 in
13:15 15.3 °F 11.7 °F 1034.8 in Calm   8.0 mph 79 % 0.0 in
13:30 15.7 °F 11.4 °F 1034.8 in SSE 1.6 mph 9.7 mph 76 % 0.0 in
13:45 15.8 °F 10.9 °F 1034.8 in SSE 1.6 mph 9.7 mph 73 % 0.0 in
14:00 16.2 °F 11.2 °F 1034.8 in SE 1.6 mph 8.0 mph 72 % 0.0 in
14:15 16.4 °F 11.5 °F 1034.8 in SSE 1.6 mph 8.0 mph 73 % 0.0 in
14:30 16.3 °F 11.8 °F 1034.8 in Calm   6.4 mph 75 % 0.0 in
14:45 16.3 °F 11.9 °F 1034.8 in Calm   1.6 mph 75 % 0.0 in
15:00 16.6 °F 11.5 °F 1034.8 in Calm   8.0 mph 72 % 0.0 in
15:15 16.9 °F 11.6 °F 1034.8 in Calm   9.7 mph 71 % 0.0 in
15:30 17.2 °F 11.9 °F 1034.8 in Calm   6.4 mph 71 % 0.0 in
15:45 17.3 °F 11.6 °F 1034.8 in Calm   3.2 mph 69 % 0.0 in
16:00 17.6 °F 11.8 °F 1034.8 in Calm   8.0 mph 69 % 0.0 in
16:15 17.8 °F 12.1 °F 1034.8 in Calm   1.6 mph 69 % 0.0 in
16:45 17.7 °F 12.3 °F 1034.8 in Calm   1.6 mph 71 % 0.0 in
17:00 17.7 °F 12.6 °F 1035.1 in Calm   3.2 mph 72 % 0.0 in
17:15 17.4 °F 12.5 °F 1035.1 in Calm   1.6 mph 73 % 0.0 in
17:30 16.8 °F 12.3 °F 1035.1 in Calm     75 % 0.0 in
17:45 16.4 °F 12.3 °F 1035.1 in Calm     77 % 0.0 in
18:00 16.1 °F 12.4 °F 1035.1 in Calm     79 % 0.0 in
18:15 15.7 °F 12.0 °F 1035.1 in Calm     79 % 0.0 in
18:30 15.2 °F 12.2 °F 1035.1 in Calm     82 % 0.0 in
18:45 14.7 °F 12.0 °F 1035.4 in Calm     84 % 0.0 in
19:00 13.8 °F 11.7 °F 1035.4 in Calm     87 % 0.0 in
19:15 13.0 °F 11.2 °F 1035.4 in Calm     89 % 0.0 in
19:30 12.2 °F 10.6 °F 1035.4 in Calm     90 % 0.0 in
19:45 11.6 °F 10.3 °F 1035.8 in Calm     92 % 0.0 in
20:00 10.9 °F 9.7 °F 1035.8 in Calm     92 % 0.0 in
20:15 10.4 °F 9.3 °F 1035.8 in Calm     93 % 0.0 in
20:30 9.9 °F 8.9 °F 1036.1 in Calm     93 % 0.0 in
20:45 9.6 °F 8.6 °F 1036.1 in Calm     94 % 0.0 in
21:00 9.2 °F 8.3 °F 1036.1 in Calm     94 % 0.0 in
21:15 9.0 °F 8.2 °F 1036.5 in Calm     95 % 0.0 in
21:30 8.9 °F 8.1 °F 1036.5 in Calm     95 % 0.0 in
21:45 8.7 °F 7.9 °F 1036.5 in Calm     95 % 0.0 in
22:00 8.5 °F 7.7 °F 1036.8 in Calm     95 % 0.0 in
22:15 8.2 °F 7.4 °F 1036.8 in Calm     95 % 0.0 in
22:30 7.8 °F 7.1 °F 1036.8 in Calm     95 % 0.0 in
22:45 7.7 °F 7.1 °F 1036.8 in Calm     96 % 0.0 in
23:00 7.3 °F 6.6 °F 1036.8 in Calm     95 % 0.0 in
23:15 7.1 °F 6.5 °F 1037.1 in Calm     96 % 0.0 in
23:30 6.8 °F 6.2 °F 1037.1 in Calm     96 % 0.0 in
23:45 6.7 °F 6.1 °F 1037.5 in Calm     96 % 0.0 in
Esan sääasema
Terveisin Weather Underground - 2.75 mb

Alkuperäinen skripti  Jim McMurry - jmcmurry@mwt.net Sovitettu myös templatelle  Wim van der Kuil - Leuven-Template.eu

Laitteet joita käytämme:

Sääasema
Davis VP2

Sääasemaohjelma
Cumulus

Sääaseman tietokone
Asus EeePC

Palveluntarjoaja
Suncomet

Davis VP2

Cumulus

Asus EeePC

Suncomet